Time;durP1;ratioP1;P1;durP2;ratioP2;P2;SDS_P1;SDS_P2;PMS_P1;PMS_P2;Temp;Humidity;BMP_temperature;BMP_pressure;BME280_temperature;BME280_humidity;BME280_pressure;Samples;Min_cycle;Max_cycle;Signal;HPM_P1;HPM_P2
2022/03/15 00:01:13;;;;;;;15.13;7.97;;;4.90;99.90;;;;;;5007899;28;20405;-60
2022/03/15 00:03:38;;;;;;;14.65;7.65;;;4.80;99.90;;;;;;4994665;28;20080;-61
2022/03/15 00:06:04;;;;;;;20.65;7.93;;;4.80;99.90;;;;;;5005878;28;20026;-61
2022/03/15 00:08:30;;;;;;;19.67;9.57;;;4.70;99.90;;;;;;5005855;28;20030;-58
2022/03/15 00:11:02;;;;;;;18.85;9.38;;;4.70;99.90;;;;;;5012377;28;20022;-60
2022/03/15 00:13:29;;;;;;;18.20;8.85;;;4.70;99.90;;;;;;5003228;28;20037;-61
2022/03/15 00:15:57;;;;;;;21.98;8.65;;;4.70;99.90;;;;;;5011928;28;20030;-60
2022/03/15 00:18:24;;;;;;;16.98;7.97;;;4.70;99.90;;;;;;5010271;28;20093;-60
2022/03/15 00:20:50;;;;;;;14.05;8.38;;;4.70;99.90;;;;;;5011391;28;20041;-61
2022/03/15 00:23:15;;;;;;;14.38;8.93;;;4.70;99.90;;;;;;4998941;28;20026;-61
2022/03/15 00:25:41;;;;;;;19.25;8.55;;;4.70;99.90;;;;;;5006934;28;20510;-61
2022/03/15 00:28:06;;;;;;;12.82;7.57;;;4.70;99.90;;;;;;4997605;28;20535;-61
2022/03/15 00:30:32;;;;;;;15.45;8.43;;;4.60;99.90;;;;;;5011422;28;20057;-59
2022/03/15 00:32:57;;;;;;;16.70;8.05;;;4.60;99.90;;;;;;5004702;28;20480;-61
2022/03/15 00:35:25;;;;;;;15.63;8.45;;;4.60;99.90;;;;;;5001858;28;20497;-61
2022/03/15 00:37:53;;;;;;;17.63;8.55;;;4.60;99.90;;;;;;5007614;28;20038;-61
2022/03/15 00:40:20;;;;;;;19.55;8.57;;;4.60;99.90;;;;;;5001767;28;20087;-61
2022/03/15 00:42:49;;;;;;;16.30;8.95;;;4.50;99.90;;;;;;4996594;28;20109;-58
2022/03/15 00:45:17;;;;;;;19.83;8.68;;;4.50;99.90;;;;;;4994322;28;20051;-60
2022/03/15 00:47:43;;;;;;;13.43;8.88;;;4.50;99.90;;;;;;5005029;28;20096;-61
2022/03/15 00:50:09;;;;;;;20.50;8.68;;;4.60;99.90;;;;;;5003270;28;20029;-61
2022/03/15 00:52:34;;;;;;;20.20;9.02;;;4.70;99.90;;;;;;5001559;28;20100;-60
2022/03/15 00:55:00;;;;;;;17.90;8.75;;;4.70;99.90;;;;;;4995023;28;20038;-60
2022/03/15 00:57:26;;;;;;;15.50;8.48;;;4.70;99.90;;;;;;4997253;28;20030;-61
2022/03/15 00:59:52;;;;;;;14.65;8.00;;;4.70;99.90;;;;;;5007467;28;20040;-61
2022/03/15 01:02:17;;;;;;;18.40;8.63;;;4.70;99.90;;;;;;4997998;28;20023;-60
2022/03/15 01:04:43;;;;;;;21.58;8.38;;;4.70;99.90;;;;;;5006936;28;20098;-60
2022/03/15 01:07:11;;;;;;;15.55;8.43;;;4.70;99.90;;;;;;5004966;28;21493;-61
2022/03/15 01:09:36;;;;;;;17.42;7.95;;;4.60;99.90;;;;;;5007224;28;20034;-61
2022/03/15 01:12:02;;;;;;;18.50;8.45;;;4.50;99.90;;;;;;5001863;28;20088;-61
2022/03/15 01:14:28;;;;;;;17.15;8.60;;;4.50;99.90;;;;;;5008678;28;20025;-60
2022/03/15 01:16:55;;;;;;;17.38;9.13;;;4.50;99.90;;;;;;5002583;28;20038;-60
2022/03/15 01:19:22;;;;;;;17.98;8.82;;;4.50;99.90;;;;;;4987886;28;20052;-57
2022/03/15 01:21:47;;;;;;;18.25;8.50;;;4.50;99.90;;;;;;5009000;28;20120;-60
2022/03/15 01:24:13;;;;;;;15.32;7.68;;;4.50;99.90;;;;;;5002569;28;20108;-60
2022/03/15 01:26:38;;;;;;;14.38;8.10;;;4.50;99.90;;;;;;5009500;28;20542;-60
2022/03/15 01:29:04;;;;;;;24.50;7.88;;;4.50;99.90;;;;;;4993845;28;20114;-60
2022/03/15 01:31:30;;;;;;;16.35;7.93;;;4.50;99.90;;;;;;5010135;28;20030;-60
2022/03/15 01:33:56;;;;;;;16.23;7.70;;;4.50;99.90;;;;;;5004438;28;20041;-60
2022/03/15 01:36:22;;;;;;;18.15;8.30;;;4.50;99.90;;;;;;5010475;28;20040;-60
2022/03/15 01:38:47;;;;;;;14.63;8.50;;;4.50;99.90;;;;;;4999188;28;20034;-60
2022/03/15 01:41:13;;;;;;;20.02;8.32;;;4.50;99.90;;;;;;5009526;28;20030;-61
2022/03/15 01:43:41;;;;;;;20.55;8.32;;;4.50;99.90;;;;;;5008918;28;20029;-61
2022/03/15 01:46:07;;;;;;;16.48;8.77;;;4.50;99.90;;;;;;5011262;28;20037;-61
2022/03/15 01:48:33;;;;;;;18.08;8.35;;;4.50;99.90;;;;;;5003974;28;20519;-61
2022/03/15 01:50:59;;;;;;;21.27;8.18;;;4.50;99.90;;;;;;5009712;28;20108;-61
2022/03/15 01:53:25;;;;;;;17.15;7.38;;;4.50;99.90;;;;;;5002478;28;20037;-60
2022/03/15 01:55:51;;;;;;;15.55;7.13;;;4.60;99.90;;;;;;4971746;28;20068;-60
2022/03/15 01:58:17;;;;;;;15.57;8.60;;;4.60;99.90;;;;;;4997944;28;20093;-61
2022/03/15 02:00:44;;;;;;;17.20;7.93;;;4.70;99.90;;;;;;5007156;28;20428;-61
2022/03/15 02:03:09;;;;;;;18.80;8.38;;;4.70;99.90;;;;;;5008749;28;20100;-61
2022/03/15 02:05:35;;;;;;;15.02;8.40;;;4.70;99.90;;;;;;5010061;28;20169;-61
2022/03/15 02:08:11;;;;;;;15.88;7.63;;;4.60;99.90;;;;;;5005844;28;20496;-60
2022/03/15 02:10:37;;;;;;;16.23;9.00;;;4.60;99.90;;;;;;5009182;28;20099;-61
2022/03/15 02:13:02;;;;;;;13.27;7.72;;;4.60;99.90;;;;;;5002821;28;20025;-61
2022/03/15 02:15:28;;;;;;;17.27;8.98;;;4.60;99.90;;;;;;5010320;28;20041;-61
2022/03/15 02:17:54;;;;;;;12.00;7.38;;;4.50;99.90;;;;;;5006749;28;20411;-61
2022/03/15 02:20:19;;;;;;;19.42;8.10;;;4.50;99.90;;;;;;5009561;28;20022;-60
2022/03/15 02:22:45;;;;;;;15.93;9.18;;;4.50;99.90;;;;;;5002636;28;20030;-61
2022/03/15 02:25:11;;;;;;;19.40;8.23;;;4.50;99.90;;;;;;5008894;28;20080;-60
2022/03/15 02:27:36;;;;;;;19.08;8.93;;;4.50;99.90;;;;;;5008778;28;20025;-61
2022/03/15 02:30:03;;;;;;;17.88;8.55;;;4.50;99.90;;;;;;4995472;28;20476;-60
2022/03/15 02:32:29;;;;;;;15.35;7.35;;;4.40;99.90;;;;;;5003445;28;20042;-57
2022/03/15 02:34:54;;;;;;;16.52;7.88;;;4.40;99.90;;;;;;5006930;28;20084;-57
2022/03/15 02:37:20;;;;;;;15.55;7.38;;;4.40;99.90;;;;;;5006303;28;20034;-60
2022/03/15 02:39:45;;;;;;;13.82;7.35;;;4.40;99.90;;;;;;5009445;28;20068;-58
2022/03/15 02:42:11;;;;;;;17.83;8.10;;;4.50;99.90;;;;;;5007717;28;20026;-60
2022/03/15 02:44:36;;;;;;;14.60;7.78;;;4.50;99.90;;;;;;5006440;28;20029;-58
2022/03/15 02:47:03;;;;;;;16.00;8.18;;;4.50;99.90;;;;;;5003032;28;20038;-59
2022/03/15 02:49:28;;;;;;;16.67;7.35;;;4.50;99.90;;;;;;5008894;28;20637;-58
2022/03/15 02:51:54;;;;;;;14.32;7.45;;;4.50;99.90;;;;;;5009015;28;20038;-61
2022/03/15 02:54:19;;;;;;;12.18;7.00;;;4.50;99.90;;;;;;5008204;28;20196;-60
2022/03/15 02:56:46;;;;;;;16.15;7.65;;;4.40;99.90;;;;;;5007165;28;20525;-61
2022/03/15 02:59:16;;;;;;;19.17;7.88;;;4.40;99.90;;;;;;5007143;28;20408;-61
2022/03/15 03:01:45;;;;;;;14.30;8.65;;;4.50;99.90;;;;;;5004446;28;20037;-60
2022/03/15 03:04:12;;;;;;;14.00;7.85;;;4.40;99.90;;;;;;5003298;28;20061;-61
2022/03/15 03:06:41;;;;;;;16.55;6.57;;;4.40;99.90;;;;;;5008092;28;20080;-61
2022/03/15 03:09:06;;;;;;;15.48;6.88;;;4.40;99.90;;;;;;5002551;28;20211;-59
2022/03/15 03:11:32;;;;;;;17.65;7.05;;;4.50;99.90;;;;;;5002192;28;20097;-58
2022/03/15 03:13:59;;;;;;;19.85;6.22;;;4.50;99.90;;;;;;5005066;28;20036;-60
2022/03/15 03:16:26;;;;;;;16.73;6.40;;;4.50;99.90;;;;;;5008380;28;20022;-61
2022/03/15 03:18:54;;;;;;;14.07;5.47;;;4.60;99.90;;;;;;5001265;28;20026;-61
2022/03/15 03:21:21;;;;;;;12.93;5.80;;;4.60;99.90;;;;;;5008105;28;20038;-61
2022/03/15 03:23:46;;;;;;;16.42;6.50;;;4.60;99.90;;;;;;4991844;28;20146;-59
2022/03/15 03:26:12;;;;;;;18.60;8.02;;;4.60;99.90;;;;;;5006738;28;20030;-61
2022/03/15 03:28:38;;;;;;;16.40;6.85;;;4.60;99.90;;;;;;4989300;28;20041;-60
2022/03/15 03:31:05;;;;;;;19.05;7.70;;;4.60;99.90;;;;;;5007316;28;20038;-60
2022/03/15 03:33:32;;;;;;;21.40;6.82;;;4.60;99.90;;;;;;4996034;28;20029;-61
2022/03/15 03:35:58;;;;;;;10.25;5.78;;;4.50;99.90;;;;;;5008026;28;20511;-60
2022/03/15 03:38:23;;;;;;;14.68;6.55;;;4.50;99.90;;;;;;5006347;28;20045;-62
2022/03/15 03:40:49;;;;;;;14.50;5.97;;;4.50;99.90;;;;;;5007327;28;20037;-61
2022/03/15 03:43:14;;;;;;;14.95;5.90;;;4.50;99.90;;;;;;4969413;28;1022392;-61
2022/03/15 03:45:40;;;;;;;14.98;5.95;;;4.50;99.90;;;;;;5008813;28;20403;-61
2022/03/15 03:48:07;;;;;;;16.10;5.72;;;4.50;99.90;;;;;;5008769;28;20076;-60
2022/03/15 03:50:34;;;;;;;12.98;5.97;;;4.50;99.90;;;;;;5012856;28;20030;-61
2022/03/15 03:52:59;;;;;;;14.45;5.82;;;4.60;99.90;;;;;;5002755;28;20042;-60
2022/03/15 03:55:25;;;;;;;13.80;5.78;;;4.60;99.90;;;;;;5002723;28;20096;-61
2022/03/15 03:57:51;;;;;;;11.55;5.57;;;4.60;99.90;;;;;;5011587;28;20041;-60
2022/03/15 04:00:17;;;;;;;12.85;5.97;;;4.60;99.90;;;;;;5012821;28;20049;-61
2022/03/15 04:02:43;;;;;;;19.17;7.30;;;4.50;99.90;;;;;;5005796;28;20026;-61
2022/03/15 04:05:09;;;;;;;13.43;6.63;;;4.50;99.90;;;;;;5001317;28;20112;-61
2022/03/15 04:07:35;;;;;;;13.75;5.90;;;4.60;99.90;;;;;;5006541;28;20138;-61
2022/03/15 04:10:02;;;;;;;11.25;5.47;;;4.60;99.90;;;;;;5012272;28;20052;-61
2022/03/15 04:12:29;;;;;;;17.33;6.13;;;4.60;99.90;;;;;;5006343;28;20042;-61
2022/03/15 04:14:57;;;;;;;11.23;5.55;;;4.50;99.90;;;;;;5008033;28;20026;-61
2022/03/15 04:17:23;;;;;;;15.98;4.68;;;4.60;99.90;;;;;;5006880;28;20408;-61
2022/03/15 04:19:49;;;;;;;9.23;4.55;;;4.60;99.90;;;;;;5006877;28;20074;-61
2022/03/15 04:22:14;;;;;;;14.30;5.60;;;4.60;99.90;;;;;;5008118;28;20389;-61
2022/03/15 04:24:40;;;;;;;18.90;4.88;;;4.70;99.90;;;;;;5008791;28;20125;-61
2022/03/15 04:27:05;;;;;;;10.23;4.72;;;4.70;99.90;;;;;;5009341;28;20034;-60
2022/03/15 04:29:31;;;;;;;10.52;4.38;;;4.90;99.90;;;;;;4996692;28;20088;-61
2022/03/15 04:31:57;;;;;;;13.00;4.95;;;5.00;99.90;;;;;;5010620;28;20062;-61
2022/03/15 04:34:23;;;;;;;14.45;4.93;;;5.10;99.90;;;;;;5008874;28;20523;-61
2022/03/15 04:36:48;;;;;;;8.45;4.60;;;5.10;99.90;;;;;;5011666;28;20034;-61
2022/03/15 04:39:14;;;;;;;13.85;5.07;;;5.10;99.90;;;;;;5007315;28;20041;-61
2022/03/15 04:41:40;;;;;;;13.05;4.25;;;5.10;99.90;;;;;;5011425;28;20056;-61
2022/03/15 04:44:06;;;;;;;20.00;5.13;;;5.20;99.90;;;;;;5008145;28;20030;-60
2022/03/15 04:46:33;;;;;;;11.05;4.38;;;5.20;99.90;;;;;;5011557;28;20080;-61
2022/03/15 04:48:59;;;;;;;12.27;4.57;;;5.20;99.90;;;;;;5007982;28;20038;-60
2022/03/15 04:51:25;;;;;;;9.20;4.68;;;5.10;99.90;;;;;;5011499;28;20396;-61
2022/03/15 04:53:52;;;;;;;7.78;4.70;;;5.10;99.90;;;;;;5003322;28;20037;-58
2022/03/15 04:56:18;;;;;;;10.32;5.20;;;5.10;99.90;;;;;;5010563;28;20510;-61
2022/03/15 04:58:44;;;;;;;18.92;5.00;;;5.10;99.90;;;;;;5005075;28;20057;-61
2022/03/15 05:01:10;;;;;;;9.65;4.63;;;5.10;99.90;;;;;;5010765;28;20030;-61
2022/03/15 05:03:36;;;;;;;11.40;3.63;;;5.10;99.90;;;;;;5007065;28;20381;-61
2022/03/15 05:06:02;;;;;;;10.85;3.90;;;5.10;99.90;;;;;;5003986;28;20069;-59
2022/03/15 05:08:28;;;;;;;14.30;4.82;;;5.10;99.90;;;;;;5002020;28;20029;-61
2022/03/15 05:11:06;;;;;;;11.52;5.05;;;5.10;99.90;;;;;;5010558;28;20044;-61
2022/03/15 05:13:45;;;;;;;7.35;4.30;;;5.10;99.90;;;;;;4998092;28;20042;-62
2022/03/15 05:16:21;;;;;;;7.93;4.50;;;5.10;99.90;;;;;;5010386;28;20408;-61
2022/03/15 05:18:53;;;;;;;9.45;3.88;;;5.10;99.90;;;;;;5004419;28;20553;-60
2022/03/15 05:21:21;;;;;;;9.73;4.10;;;5.10;99.90;;;;;;5009046;28;20426;-61
2022/03/15 05:23:47;;;;;;;12.68;4.13;;;5.10;99.90;;;;;;5009294;28;20037;-61
2022/03/15 05:26:14;;;;;;;9.98;3.78;;;5.10;99.90;;;;;;5005149;28;20136;-62
2022/03/15 05:28:40;;;;;;;8.57;3.75;;;5.10;99.90;;;;;;5001299;28;20484;-61
2022/03/15 05:31:06;;;;;;;14.43;4.80;;;5.10;99.90;;;;;;4994418;28;20123;-61
2022/03/15 05:33:32;;;;;;;10.68;4.10;;;5.10;99.90;;;;;;5005987;28;20083;-62
2022/03/15 05:35:57;;;;;;;10.27;4.38;;;5.10;99.90;;;;;;5009881;28;20026;-62
2022/03/15 05:38:24;;;;;;;8.77;3.97;;;5.10;99.90;;;;;;5005164;28;20425;-62
2022/03/15 05:40:49;;;;;;;9.32;4.50;;;5.10;99.90;;;;;;5010535;28;20045;-61
2022/03/15 05:43:15;;;;;;;8.45;4.68;;;5.10;99.90;;;;;;5000626;28;20035;-61
2022/03/15 05:45:41;;;;;;;10.23;3.97;;;5.20;99.90;;;;;;5009949;28;20032;-61
2022/03/15 05:48:07;;;;;;;12.27;4.07;;;5.20;99.90;;;;;;4999633;28;20062;-61
2022/03/15 05:50:33;;;;;;;14.68;4.30;;;5.20;99.90;;;;;;5008198;28;20045;-60
2022/03/15 05:53:03;;;;;;;9.80;4.10;;;5.20;99.90;;;;;;4999792;28;20026;-61
2022/03/15 05:55:30;;;;;;;9.75;3.13;;;5.30;99.90;;;;;;5011019;28;20034;-62
2022/03/15 05:57:56;;;;;;;12.18;3.20;;;5.40;99.90;;;;;;5010633;28;20125;-62
2022/03/15 06:00:21;;;;;;;8.27;3.38;;;5.40;99.90;;;;;;5010337;28;20523;-62
2022/03/15 06:02:47;;;;;;;6.53;3.60;;;5.40;99.90;;;;;;5001929;28;20042;-61
2022/03/15 06:05:12;;;;;;;10.27;3.95;;;5.40;99.90;;;;;;5005284;28;20369;-62
2022/03/15 06:08:04;;;;;;;12.02;4.47;;;5.40;99.90;;;;;;5002320;28;20133;-61
2022/03/15 06:10:31;;;;;;;8.82;3.97;;;5.50;99.90;;;;;;5006318;28;20056;-62
2022/03/15 06:12:57;;;;;;;9.57;4.65;;;5.50;99.90;;;;;;5002306;28;20093;-62
2022/03/15 06:15:22;;;;;;;11.10;4.22;;;5.50;99.90;;;;;;5009853;28;20034;-62
2022/03/15 06:17:56;;;;;;;19.92;4.95;;;5.50;99.90;;;;;;5009500;28;20681;-61
2022/03/15 06:20:23;;;;;;;11.30;3.72;;;5.50;99.90;;;;;;5006739;28;20064;-61
2022/03/15 06:22:49;;;;;;;7.22;3.67;;;5.50;99.90;;;;;;5006389;28;20831;-61
2022/03/15 06:25:15;;;;;;;12.35;4.32;;;5.60;99.90;;;;;;5009949;28;20397;-62
2022/03/15 06:27:42;;;;;;;7.72;4.18;;;5.70;99.90;;;;;;5007965;28;20033;-62
2022/03/15 06:30:08;;;;;;;9.32;4.00;;;5.70;99.90;;;;;;4995046;28;20125;-61
2022/03/15 06:32:34;;;;;;;9.13;3.20;;;5.70;99.90;;;;;;5006244;28;20029;-61
2022/03/15 06:35:02;;;;;;;8.45;3.50;;;5.80;99.90;;;;;;5008409;28;20022;-61
2022/03/15 06:37:28;;;;;;;8.48;3.15;;;5.80;99.90;;;;;;5005958;28;20094;-62
2022/03/15 06:39:54;;;;;;;7.28;3.35;;;5.80;99.90;;;;;;5008783;28;20042;-61
2022/03/15 06:42:21;;;;;;;9.38;3.20;;;5.90;99.90;;;;;;5008621;28;20026;-60
2022/03/15 06:44:47;;;;;;;8.85;3.58;;;5.90;99.90;;;;;;5007983;28;20025;-60
2022/03/15 06:47:12;;;;;;;5.70;3.38;;;6.00;99.90;;;;;;5006751;28;20042;-60
2022/03/15 06:49:38;;;;;;;12.27;3.53;;;6.00;99.90;;;;;;5010260;28;20033;-62
2022/03/15 06:52:04;;;;;;;9.60;3.55;;;6.10;99.90;;;;;;5008226;28;20061;-61
2022/03/15 06:54:29;;;;;;;6.75;3.03;;;6.20;99.90;;;;;;5009579;28;20033;-61
2022/03/15 06:56:57;;;;;;;7.22;3.97;;;6.30;99.90;;;;;;5008582;28;20044;-60
2022/03/15 06:59:23;;;;;;;8.23;3.25;;;6.40;99.90;;;;;;5003598;28;20117;-62
2022/03/15 07:01:48;;;;;;;14.05;4.60;;;6.50;99.90;;;;;;5009736;28;20108;-62
2022/03/15 07:04:14;;;;;;;10.32;2.83;;;6.50;99.90;;;;;;5006559;28;20526;-61
2022/03/15 07:06:39;;;;;;;7.43;3.10;;;6.50;99.90;;;;;;5008091;28;20034;-61
2022/03/15 07:09:05;;;;;;;12.45;5.32;;;6.60;99.90;;;;;;5003916;28;20057;-61
2022/03/15 07:11:31;;;;;;;13.45;4.43;;;6.50;99.90;;;;;;5008666;28;20026;-60
2022/03/15 07:13:57;;;;;;;7.80;3.80;;;6.60;99.90;;;;;;5007485;28;20515;-61
2022/03/15 07:16:22;;;;;;;9.52;3.50;;;6.60;99.90;;;;;;5008584;28;20044;-62
2022/03/15 07:18:48;;;;;;;9.07;3.42;;;6.60;99.90;;;;;;5006936;28;20031;-61
2022/03/15 07:21:14;;;;;;;12.27;4.50;;;6.60;99.90;;;;;;5012984;28;20034;-61
2022/03/15 07:23:39;;;;;;;8.23;3.70;;;6.60;99.90;;;;;;5010716;28;20026;-61
2022/03/15 07:26:05;;;;;;;7.45;3.47;;;6.60;99.90;;;;;;5012518;28;20044;-61
2022/03/15 07:28:31;;;;;;;10.38;3.60;;;6.60;99.90;;;;;;5011676;28;20041;-62
2022/03/15 07:30:56;;;;;;;12.18;4.38;;;6.60;99.90;;;;;;4996519;28;20096;-61
2022/03/15 07:33:22;;;;;;;8.95;4.15;;;6.70;99.90;;;;;;5011288;28;20034;-61
2022/03/15 07:35:47;;;;;;;8.25;3.53;;;6.80;99.90;;;;;;5012616;28;20026;-62
2022/03/15 07:38:17;;;;;;;9.93;4.72;;;6.90;99.90;;;;;;5010853;28;20393;-62
2022/03/15 07:40:43;;;;;;;10.02;4.55;;;6.90;99.90;;;;;;5012821;28;20110;-62
2022/03/15 07:43:09;;;;;;;13.40;3.97;;;6.90;99.90;;;;;;5008277;28;20032;-62
2022/03/15 07:45:34;;;;;;;13.13;4.18;;;7.00;99.90;;;;;;5012585;28;20383;-61
2022/03/15 07:48:00;;;;;;;10.63;4.45;;;7.20;99.90;;;;;;5008707;28;20022;-61
2022/03/15 07:50:26;;;;;;;9.05;3.55;;;7.20;99.90;;;;;;5011967;28;20054;-61
2022/03/15 07:52:52;;;;;;;9.13;4.15;;;7.30;99.90;;;;;;5003566;28;20066;-62
2022/03/15 07:55:20;;;;;;;8.40;4.05;;;7.40;99.90;;;;;;5008475;28;20025;-62
2022/03/15 07:57:46;;;;;;;10.02;4.72;;;7.50;99.90;;;;;;5009845;28;20032;-60
2022/03/15 08:00:13;;;;;;;10.30;3.92;;;7.50;99.90;;;;;;5012002;28;20041;-61
2022/03/15 08:02:39;;;;;;;9.23;3.40;;;7.60;99.90;;;;;;5011688;28;20028;-62
2022/03/15 08:05:05;;;;;;;15.07;5.07;;;7.70;99.90;;;;;;5011640;28;20018;-61
2022/03/15 08:07:31;;;;;;;8.88;3.78;;;7.80;99.90;;;;;;5005777;28;20065;-61
2022/03/15 08:09:57;;;;;;;12.98;4.45;;;7.90;99.90;;;;;;5011269;28;20077;-62
2022/03/15 08:12:22;;;;;;;13.52;3.75;;;8.00;99.90;;;;;;5007148;28;20034;-62
2022/03/15 08:14:48;;;;;;;8.27;3.38;;;8.10;99.90;;;;;;5011681;28;20026;-61
2022/03/15 08:17:14;;;;;;;6.82;3.22;;;8.20;99.90;;;;;;5008397;28;20038;-62
2022/03/15 08:19:39;;;;;;;10.15;3.72;;;8.30;99.90;;;;;;5011771;28;20053;-61
2022/03/15 08:22:06;;;;;;;10.50;3.28;;;8.40;99.90;;;;;;5010310;28;20630;-62
2022/03/15 08:24:32;;;;;;;11.18;3.75;;;8.40;99.90;;;;;;5011420;28;20456;-61
2022/03/15 08:26:58;;;;;;;7.60;3.17;;;8.50;99.90;;;;;;5010091;28;20105;-62
2022/03/15 08:29:23;;;;;;;9.27;4.20;;;8.50;99.90;;;;;;4987414;28;20645;-61
2022/03/15 08:31:49;;;;;;;8.77;3.42;;;8.70;99.90;;;;;;5012134;28;20038;-60
2022/03/15 08:34:14;;;;;;;12.18;3.50;;;8.70;99.90;;;;;;5009794;28;20492;-61
2022/03/15 08:36:40;;;;;;;8.65;3.78;;;8.90;99.90;;;;;;5010663;28;20034;-62
2022/03/15 08:39:06;;;;;;;8.60;2.92;;;8.80;99.90;;;;;;5011458;28;20018;-62
2022/03/15 08:41:31;;;;;;;8.27;3.53;;;8.90;99.90;;;;;;5012459;28;20034;-62
2022/03/15 08:43:57;;;;;;;7.35;3.05;;;8.90;99.90;;;;;;5009017;28;20419;-62
2022/03/15 08:46:23;;;;;;;10.23;3.17;;;9.00;99.90;;;;;;5012126;28;20026;-61
2022/03/15 08:48:48;;;;;;;7.07;3.05;;;9.10;99.90;;;;;;5007544;28;20033;-62
2022/03/15 08:51:14;;;;;;;9.07;3.58;;;9.00;99.90;;;;;;5011012;28;20033;-61
2022/03/15 08:53:40;;;;;;;6.60;3.67;;;9.10;99.90;;;;;;5008550;28;20079;-61
2022/03/15 08:56:06;;;;;;;5.85;3.10;;;9.10;99.90;;;;;;5011538;28;20034;-61
2022/03/15 08:58:32;;;;;;;12.45;4.72;;;9.30;99.90;;;;;;4997373;28;20084;-62
2022/03/15 09:00:58;;;;;;;9.55;4.15;;;9.30;99.90;;;;;;4994113;28;20117;-63
2022/03/15 09:03:24;;;;;;;9.27;3.65;;;9.30;99.90;;;;;;5006508;28;20034;-61
2022/03/15 09:05:50;;;;;;;7.70;3.65;;;9.40;99.90;;;;;;5011059;28;20107;-61
2022/03/15 09:08:16;;;;;;;5.68;3.15;;;9.40;99.90;;;;;;4997125;28;20121;-61
2022/03/15 09:10:44;;;;;;;6.88;3.38;;;9.50;99.90;;;;;;5007117;28;20160;-60
2022/03/15 09:13:10;;;;;;;7.22;3.53;;;9.50;99.90;;;;;;5009778;28;20091;-62
2022/03/15 09:15:36;;;;;;;8.35;4.18;;;9.50;99.90;;;;;;5010560;28;20104;-61
2022/03/15 09:18:02;;;;;;;7.57;4.55;;;9.50;99.90;;;;;;5009960;28;20041;-62
2022/03/15 09:20:28;;;;;;;11.38;4.90;;;9.40;99.90;;;;;;5009873;28;20037;-62
2022/03/15 09:22:53;;;;;;;11.40;5.40;;;9.50;99.90;;;;;;5009621;28;20117;-62
2022/03/15 09:25:19;;;;;;;13.88;4.68;;;9.40;99.90;;;;;;5009831;28;20038;-62
2022/03/15 09:27:47;;;;;;;12.55;4.82;;;9.40;99.90;;;;;;5005660;28;20087;-62
2022/03/15 09:30:13;;;;;;;11.98;4.50;;;9.40;99.90;;;;;;4994743;28;20042;-62
2022/03/15 09:32:39;;;;;;;10.20;4.07;;;9.40;99.90;;;;;;5008853;28;20030;-61
2022/03/15 09:35:05;;;;;;;13.13;4.43;;;9.40;99.90;;;;;;5009040;28;20048;-62
2022/03/15 09:37:31;;;;;;;9.82;4.22;;;9.40;99.90;;;;;;5008752;28;20088;-62
2022/03/15 09:40:00;;;;;;;9.80;4.55;;;9.50;99.90;;;;;;5009878;28;20038;-62
2022/03/15 09:42:28;;;;;;;9.38;4.78;;;9.50;99.90;;;;;;5008845;28;20041;-62
2022/03/15 09:44:57;;;;;;;12.00;4.63;;;9.50;99.90;;;;;;5010555;28;20033;-62
2022/03/15 09:47:32;;;;;;;11.57;4.90;;;9.50;99.90;;;;;;5008532;28;20026;-62
2022/03/15 09:49:59;;;;;;;16.45;4.60;;;9.50;99.90;;;;;;5003916;28;20025;-62
2022/03/15 09:52:28;;;;;;;9.68;4.68;;;9.50;99.90;;;;;;5005973;28;20034;-62
2022/03/15 09:54:54;;;;;;;15.15;5.00;;;9.50;99.90;;;;;;5006192;28;20076;-62
2022/03/15 09:57:21;;;;;;;13.93;5.18;;;9.50;99.90;;;;;;5004771;28;20116;-62
2022/03/15 09:59:49;;;;;;;15.27;5.30;;;9.50;99.90;;;;;;5001039;28;20054;-62
2022/03/15 10:02:15;;;;;;;15.43;5.20;;;9.50;99.90;;;;;;5000283;28;20030;-60
2022/03/15 10:04:41;;;;;;;13.00;5.82;;;9.50;99.90;;;;;;5002835;28;20559;-61
2022/03/15 10:07:08;;;;;;;11.05;4.90;;;9.60;99.90;;;;;;5008133;28;20034;-62
2022/03/15 10:09:34;;;;;;;12.38;4.95;;;9.70;99.90;;;;;;5004464;28;20026;-62
2022/03/15 10:12:00;;;;;;;12.10;5.05;;;9.80;99.90;;;;;;5001671;28;20108;-61
2022/03/15 10:14:26;;;;;;;11.13;5.25;;;9.70;99.90;;;;;;5000753;28;20109;-62
2022/03/15 10:16:58;;;;;;;11.35;4.60;;;9.80;99.90;;;;;;5011888;28;20030;-61
2022/03/15 10:19:25;;;;;;;7.85;4.60;;;9.80;99.90;;;;;;5004082;28;20065;-61
2022/03/15 10:21:54;;;;;;;10.35;4.63;;;9.80;99.90;;;;;;5009208;28;20395;-62
2022/03/15 10:24:31;;;;;;;11.60;4.63;;;9.90;99.90;;;;;;5006169;28;20041;-60
2022/03/15 10:26:59;;;;;;;15.23;4.88;;;10.00;99.90;;;;;;4996476;28;20539;-62
2022/03/15 10:29:28;;;;;;;14.75;4.15;;;10.00;99.90;;;;;;4986574;28;20026;-60
2022/03/15 10:31:54;;;;;;;8.68;4.15;;;10.20;99.90;;;;;;5000958;28;20106;-62
2022/03/15 10:34:21;;;;;;;8.80;3.55;;;10.20;99.90;;;;;;4998932;28;20036;-62
2022/03/15 10:36:54;;;;;;;8.57;3.42;;;10.40;99.90;;;;;;5008620;28;20029;-63
2022/03/15 10:39:20;;;;;;;9.25;4.38;;;10.40;99.90;;;;;;5003623;28;20057;-62
2022/03/15 10:41:52;;;;;;;22.27;9.38;;;10.40;99.90;;;;;;5005533;28;20030;-61
2022/03/15 10:44:28;;;;;;;48.05;29.13;;;10.50;99.90;;;;;;5006127;28;20033;-62
2022/03/15 10:47:05;;;;;;;14.55;5.03;;;10.50;99.90;;;;;;5002831;28;20036;-61
2022/03/15 10:49:50;;;;;;;20.90;10.65;;;10.40;99.90;;;;;;5002795;28;20026;-63
2022/03/15 10:52:36;;;;;;;17.00;9.82;;;10.50;99.90;;;;;;4986576;28;20041;-62
2022/03/15 10:55:22;;;;;;;15.98;6.97;;;10.60;99.90;;;;;;5007490;28;20017;-62
2022/03/15 10:58:06;;;;;;;27.80;14.45;;;10.60;99.90;;;;;;5000956;28;20165;-61
2022/03/15 11:00:37;;;;;;;11.27;5.87;;;10.60;99.90;;;;;;5005527;28;20411;-62
2022/03/15 11:03:09;;;;;;;7.10;4.43;;;10.70;99.90;;;;;;5005313;28;20276;-61
2022/03/15 11:05:37;;;;;;;5.40;2.97;;;10.70;99.90;;;;;;5003061;28;20034;-62
2022/03/15 11:08:07;;;;;;;6.70;3.42;;;10.60;99.90;;;;;;5001877;28;20034;-62
2022/03/15 11:10:33;;;;;;;10.48;3.20;;;10.50;99.90;;;;;;5004343;28;20033;-62
2022/03/15 11:13:06;;;;;;;8.70;2.83;;;10.40;99.90;;;;;;5005754;28;20041;-60
2022/03/15 11:15:37;;;;;;;10.48;4.82;;;10.50;99.90;;;;;;5006586;28;20428;-62
2022/03/15 11:18:05;;;;;;;9.07;3.45;;;10.50;99.90;;;;;;5002839;28;20092;-62
2022/03/15 11:20:36;;;;;;;12.38;6.40;;;10.50;99.90;;;;;;5005502;28;20032;-62
2022/03/15 11:23:04;;;;;;;11.70;4.72;;;10.40;99.90;;;;;;5002742;28;20031;-62
2022/03/15 11:25:39;;;;;;;6.22;3.30;;;10.40;99.90;;;;;;5001996;28;20116;-62
2022/03/15 11:28:09;;;;;;;20.63;11.05;;;10.50;99.90;;;;;;5001818;28;20504;-60
2022/03/15 11:30:35;;;;;;;67.55;39.38;;;10.40;99.90;;;;;;4989458;28;20462;-62
2022/03/15 11:33:03;;;;;;;48.72;25.48;;;10.30;99.90;;;;;;5022772;28;20033;-62
2022/03/15 11:35:31;;;;;;;20.05;10.45;;;10.30;99.90;;;;;;5028926;28;20179;-62
2022/03/15 11:37:58;;;;;;;7.63;3.70;;;10.40;99.90;;;;;;5026084;28;20068;-62
2022/03/15 11:40:24;;;;;;;5.93;3.20;;;10.30;99.90;;;;;;5028125;28;20039;-61
2022/03/15 11:42:57;;;;;;;8.18;3.72;;;10.20;99.90;;;;;;5026502;28;20029;-61
2022/03/15 11:45:26;;;;;;;13.27;8.23;;;10.20;99.90;;;;;;5029119;28;20034;-62
2022/03/15 11:48:44;;;;;;;8.77;4.10;;;10.30;99.90;;;;;;5019416;28;20033;-62
2022/03/15 11:51:20;;;;;;;9.95;3.38;;;10.10;99.90;;;;;;4992469;28;20081;-61
2022/03/15 11:54:12;;;;;;;14.40;3.08;;;10.20;99.90;;;;;;4986334;28;20034;-61
2022/03/15 11:56:51;;;;;;;8.65;3.53;;;10.30;99.90;;;;;;5012423;28;20559;-62
2022/03/15 11:59:16;;;;;;;14.25;3.65;;;10.20;99.90;;;;;;5022397;28;20040;-62
2022/03/15 12:01:46;;;;;;;6.80;3.10;;;10.10;99.90;;;;;;5028425;28;20025;-62
2022/03/15 12:04:12;;;;;;;8.82;4.00;;;10.00;99.90;;;;;;5023222;28;20059;-62
2022/03/15 12:06:48;;;;;;;11.10;4.53;;;9.90;99.90;;;;;;5031051;28;20060;-62
2022/03/15 12:09:13;;;;;;;8.82;3.47;;;9.80;99.90;;;;;;5028224;28;20026;-62
2022/03/15 12:11:43;;;;;;;5.85;3.78;;;9.80;99.90;;;;;;5029574;28;20115;-62
2022/03/15 12:14:13;;;;;;;16.95;5.28;;;9.80;99.90;;;;;;5027150;28;20395;-61
2022/03/15 12:16:47;;;;;;;9.15;3.17;;;9.70;99.90;;;;;;5027469;28;20465;-61
2022/03/15 12:21:59;;;;;;;12.02;3.97;;;9.70;99.90;;;;;;5029496;28;20117;-62
2022/03/15 12:24:34;;;;;;;11.65;3.50;;;9.80;99.90;;;;;;5028824;28;20025;-61
2022/03/15 12:27:04;;;;;;;9.52;3.40;;;9.80;99.90;;;;;;5024115;28;20033;-61
2022/03/15 12:29:31;;;;;;;8.57;4.20;;;9.80;99.90;;;;;;5008622;28;20403;-60
2022/03/15 12:31:58;;;;;;;11.43;4.00;;;9.80;99.90;;;;;;4995010;28;20428;-62
2022/03/15 12:34:28;;;;;;;6.30;3.92;;;9.70;99.90;;;;;;5009170;28;20557;-61
2022/03/15 12:36:58;;;;;;;9.13;4.13;;;9.60;99.90;;;;;;5025242;28;20095;-61
2022/03/15 12:39:30;;;;;;;7.45;3.53;;;9.60;99.90;;;;;;5011038;28;20092;-61
2022/03/15 12:42:10;;;;;;;7.97;3.67;;;9.60;99.90;;;;;;5009370;28;20026;-62
2022/03/15 12:44:41;;;;;;;12.10;7.65;;;9.70;99.90;;;;;;5009800;28;20156;-62
2022/03/15 12:47:08;;;;;;;10.90;4.70;;;9.50;99.90;;;;;;5014592;28;20022;-62
2022/03/15 12:49:33;;;;;;;9.20;4.30;;;9.70;99.90;;;;;;5029666;28;20027;-61
2022/03/15 12:52:13;;;;;;;5.85;3.50;;;9.60;99.90;;;;;;5006662;28;20097;-61